createdAt,value
2023-02-20T00:01:21.216Z,5.87
2023-02-20T00:03:48.714Z,3.60
2023-02-20T00:06:16.173Z,4.57
2023-02-20T00:08:43.514Z,3.77
2023-02-20T00:11:11.036Z,5.33
2023-02-20T00:13:39.697Z,4.97
2023-02-20T00:16:07.516Z,5.10
2023-02-20T00:18:34.850Z,6.97
2023-02-20T00:21:02.185Z,5.00
2023-02-20T00:23:29.523Z,4.90
2023-02-20T00:25:56.837Z,4.47
2023-02-20T00:28:24.238Z,6.63
2023-02-20T00:30:52.948Z,5.00
2023-02-20T00:33:20.315Z,5.57
2023-02-20T00:35:49.710Z,5.63
2023-02-20T00:38:19.186Z,5.23
2023-02-20T00:40:46.554Z,4.70
2023-02-20T00:43:14.032Z,4.23
2023-02-20T00:45:41.376Z,4.70
2023-02-20T00:48:10.051Z,5.23
2023-02-20T00:50:37.415Z,7.00
2023-02-20T00:53:04.940Z,4.47
2023-02-20T00:55:32.359Z,4.43
2023-02-20T00:57:59.681Z,5.97
2023-02-20T01:00:28.519Z,6.07
2023-02-20T01:02:56.294Z,4.67
2023-02-20T01:05:25.307Z,5.43
2023-02-20T01:07:54.152Z,4.43
2023-02-20T01:10:21.543Z,4.93
2023-02-20T01:12:49.166Z,5.67
2023-02-20T01:15:16.788Z,6.17
2023-02-20T01:17:44.103Z,5.13
2023-02-20T01:20:11.999Z,5.17
2023-02-20T01:22:41.578Z,5.53
2023-02-20T01:25:11.058Z,4.33
2023-02-20T01:27:38.632Z,5.77
2023-02-20T01:30:06.883Z,6.10
2023-02-20T01:32:34.238Z,7.63
2023-02-20T01:35:01.639Z,5.50
2023-02-20T01:37:28.991Z,7.53
2023-02-20T01:39:57.665Z,6.13
2023-02-20T01:42:26.153Z,6.40
2023-02-20T01:44:56.012Z,5.07
2023-02-20T01:47:24.128Z,5.93
2023-02-20T01:49:53.009Z,5.83
2023-02-20T01:52:22.161Z,5.73
2023-02-20T01:54:50.838Z,7.20
2023-02-20T01:57:21.098Z,7.43
2023-02-20T01:59:49.022Z,4.63
2023-02-20T02:02:16.706Z,6.00
2023-02-20T02:04:44.897Z,5.20
2023-02-20T02:07:12.736Z,6.63
2023-02-20T02:09:42.324Z,4.50
2023-02-20T02:12:09.815Z,4.67
2023-02-20T02:14:38.635Z,3.60
2023-02-20T02:17:16.623Z,4.73
2023-02-20T02:19:57.021Z,3.37
2023-02-20T02:22:40.986Z,3.90
2023-02-20T02:25:26.101Z,3.73
2023-02-20T02:28:13.848Z,4.13
2023-02-20T02:31:14.411Z,4.07
2023-02-20T02:33:54.828Z,3.97
2023-02-20T02:36:38.123Z,2.50
2023-02-20T02:39:08.220Z,6.93
2023-02-20T02:41:39.681Z,5.73
2023-02-20T02:44:11.019Z,4.00
2023-02-20T02:46:42.204Z,0.93
2023-02-20T02:49:12.805Z,4.97
2023-02-20T02:51:47.840Z,5.83
2023-02-20T02:54:16.395Z,3.90
2023-02-20T02:56:45.905Z,4.03
2023-02-20T02:59:14.797Z,6.13
2023-02-20T03:01:44.025Z,6.27
2023-02-20T03:04:13.477Z,4.40
2023-02-20T03:06:42.893Z,3.90
2023-02-20T03:09:13.857Z,5.73
2023-02-20T03:11:41.546Z,3.10
2023-02-20T03:14:28.950Z,4.23
2023-02-20T03:16:59.595Z,3.93
2023-02-20T03:19:28.752Z,6.07
2023-02-20T03:21:57.741Z,5.33
2023-02-20T03:24:27.433Z,6.90
2023-02-20T03:26:57.025Z,4.63
2023-02-20T03:29:27.929Z,5.00
2023-02-20T03:32:15.672Z,5.67
2023-02-20T03:35:01.491Z,3.67
2023-02-20T03:37:48.627Z,4.90
2023-02-20T03:40:35.920Z,2.67
2023-02-20T03:43:25.891Z,3.17
2023-02-20T03:45:58.698Z,4.40
2023-02-20T03:48:28.614Z,2.57
2023-02-20T03:50:57.396Z,1.13
2023-02-20T03:53:27.673Z,5.53
2023-02-20T03:55:58.413Z,4.73
2023-02-20T03:58:28.129Z,5.53
2023-02-20T04:01:01.395Z,4.27
2023-02-20T04:03:30.591Z,2.80
2023-02-20T04:05:59.601Z,4.10
2023-02-20T04:08:35.928Z,3.47
2023-02-20T04:11:06.954Z,4.97
2023-02-20T04:13:36.888Z,6.20
2023-02-20T04:16:04.420Z,2.53
2023-02-20T04:18:32.572Z,4.50
2023-02-20T04:21:05.078Z,4.73
2023-02-20T04:23:37.412Z,7.50
2023-02-20T04:26:08.896Z,4.90
2023-02-20T04:28:39.049Z,6.53
2023-02-20T04:31:08.543Z,4.57
2023-02-20T04:33:37.604Z,6.27
2023-02-20T04:36:11.779Z,4.40
2023-02-20T04:38:39.339Z,3.73
2023-02-20T04:41:11.639Z,10.03
2023-02-20T04:43:40.607Z,8.90
2023-02-20T04:46:08.178Z,7.33
2023-02-20T04:48:36.358Z,6.03
2023-02-20T04:51:04.439Z,7.13
2023-02-20T04:53:33.614Z,6.23
2023-02-20T04:56:00.955Z,4.80
2023-02-20T04:58:30.155Z,5.03
2023-02-20T05:01:04.968Z,6.27
2023-02-20T05:03:32.344Z,7.87
2023-02-20T05:05:59.702Z,8.27
2023-02-20T05:08:27.046Z,10.87
2023-02-20T05:10:54.357Z,6.50
2023-02-20T05:13:21.679Z,7.50
2023-02-20T05:15:50.365Z,6.17
2023-02-20T05:18:24.654Z,6.07
2023-02-20T05:21:20.988Z,5.30
2023-02-20T05:23:48.516Z,4.83
2023-02-20T05:26:18.454Z,2.17
2023-02-20T05:28:45.835Z,6.73
2023-02-20T05:31:17.456Z,8.93
2023-02-20T05:33:45.185Z,4.10
2023-02-20T05:36:12.921Z,3.03
2023-02-20T05:38:41.478Z,1.83
2023-02-20T05:41:08.908Z,4.17
2023-02-20T05:43:36.252Z,5.67
2023-02-20T05:46:03.707Z,7.43
2023-02-20T05:48:32.392Z,4.67
2023-02-20T05:50:59.893Z,7.03
2023-02-20T05:53:28.140Z,6.73
2023-02-20T05:55:55.823Z,6.23
2023-02-20T05:58:23.325Z,4.70
2023-02-20T06:00:50.860Z,6.50
2023-02-20T06:03:18.833Z,8.50
2023-02-20T06:05:47.533Z,10.30
2023-02-20T06:08:14.860Z,6.57
2023-02-20T06:10:42.186Z,7.83
2023-02-20T06:13:09.546Z,5.30
2023-02-20T06:15:36.877Z,5.03
2023-02-20T06:18:04.332Z,8.47
2023-02-20T06:20:32.600Z,6.67
2023-02-20T06:23:01.260Z,6.20
2023-02-20T06:25:28.582Z,8.30
2023-02-20T06:27:55.922Z,7.27
2023-02-20T06:30:23.269Z,6.27
2023-02-20T06:32:50.618Z,6.87
2023-02-20T06:35:18.119Z,5.90
2023-02-20T06:37:45.490Z,7.77
2023-02-20T06:40:14.287Z,6.77
2023-02-20T06:42:41.762Z,7.23
2023-02-20T06:45:12.874Z,5.33
2023-02-20T06:47:42.393Z,4.83
2023-02-20T06:50:09.842Z,8.70
2023-02-20T06:52:37.409Z,8.33
2023-02-20T06:55:05.005Z,7.93
2023-02-20T06:57:33.917Z,5.10
2023-02-20T07:00:01.270Z,6.17
2023-02-20T07:02:28.856Z,8.07
2023-02-20T07:04:56.168Z,5.77
2023-02-20T07:07:23.493Z,7.53
2023-02-20T07:09:51.129Z,5.17
2023-02-20T07:12:18.490Z,7.53
2023-02-20T07:14:47.250Z,6.40
2023-02-20T07:17:14.594Z,3.57
2023-02-20T07:19:41.931Z,4.53
2023-02-20T07:22:09.275Z,2.97
2023-02-20T07:24:36.864Z,4.63
2023-02-20T07:29:31.688Z,5.97
2023-02-20T07:32:00.421Z,6.27
2023-02-20T07:34:27.804Z,5.23
2023-02-20T07:36:55.192Z,4.50
2023-02-20T07:39:22.656Z,5.03
2023-02-20T07:41:51.660Z,4.00
2023-02-20T07:44:38.472Z,5.07
2023-02-20T07:47:07.187Z,5.17
2023-02-20T07:49:34.532Z,2.57
2023-02-20T07:52:01.903Z,4.77
2023-02-20T07:54:29.265Z,4.97
2023-02-20T07:56:56.784Z,5.27
2023-02-20T07:59:24.218Z,6.50
2023-02-20T08:01:51.644Z,8.17
2023-02-20T08:04:20.543Z,3.87
2023-02-20T08:06:47.866Z,5.17
2023-02-20T08:09:15.238Z,6.70
2023-02-20T08:11:42.617Z,5.33
2023-02-20T08:14:10.054Z,5.70
2023-02-20T08:16:37.404Z,6.13
2023-02-20T08:19:04.956Z,5.33
2023-02-20T08:21:33.677Z,6.03
2023-02-20T08:24:01.170Z,7.20
2023-02-20T08:26:28.960Z,6.10
2023-02-20T08:28:56.351Z,5.23
2023-02-20T08:31:32.241Z,3.87
2023-02-20T08:34:00.227Z,5.90
2023-02-20T08:36:27.775Z,6.23
2023-02-20T08:38:57.225Z,4.93
2023-02-20T08:41:24.590Z,5.83
2023-02-20T08:43:55.028Z,6.00
2023-02-20T08:46:22.504Z,4.10
2023-02-20T08:48:49.824Z,5.47
2023-02-20T08:51:19.679Z,3.37
2023-02-20T08:53:47.067Z,6.57
2023-02-20T08:56:18.310Z,5.80
2023-02-20T08:58:45.764Z,3.70
2023-02-20T09:01:13.213Z,5.80
2023-02-20T09:03:41.823Z,5.27
2023-02-20T09:06:09.327Z,4.80
2023-02-20T09:08:36.901Z,1.83
2023-02-20T09:11:04.556Z,4.10
2023-02-20T09:13:33.633Z,2.73
2023-02-20T09:16:01.027Z,1.93
2023-02-20T09:18:28.564Z,1.50
2023-02-20T09:20:56.364Z,4.00
2023-02-20T09:23:25.540Z,1.33
2023-02-20T09:25:53.641Z,4.20
2023-02-20T09:28:21.147Z,3.83
2023-02-20T09:30:50.006Z,1.60
2023-02-20T09:33:17.426Z,1.63
2023-02-20T09:35:44.775Z,1.30
2023-02-20T09:38:12.197Z,2.90
2023-02-20T09:40:39.580Z,2.10
2023-02-20T09:43:18.493Z,5.97
2023-02-20T09:45:50.131Z,1.33
2023-02-20T09:48:24.769Z,2.67
2023-02-20T09:50:55.506Z,3.53
2023-02-20T09:53:25.585Z,2.27
2023-02-20T09:55:53.425Z,3.57
2023-02-20T09:58:26.538Z,1.43
2023-02-20T10:00:54.176Z,2.30
2023-02-20T10:03:26.660Z,2.67
2023-02-20T10:05:56.226Z,2.13
2023-02-20T10:08:25.621Z,0.97
2023-02-20T10:10:53.332Z,2.30
2023-02-20T10:13:31.612Z,3.20
2023-02-20T10:16:03.605Z,2.27
2023-02-20T10:18:37.809Z,2.40
2023-02-20T10:21:08.709Z,2.20
2023-02-20T10:23:42.069Z,2.07
2023-02-20T10:26:14.390Z,5.10
2023-02-20T10:28:42.167Z,1.57
2023-02-20T10:31:16.962Z,2.23
2023-02-20T10:33:47.942Z,2.77
2023-02-20T10:36:17.443Z,1.60
2023-02-20T10:38:49.689Z,0.73
2023-02-20T10:41:19.895Z,2.03
2023-02-20T10:43:49.226Z,2.37
2023-02-20T10:46:20.072Z,1.23
2023-02-20T10:48:49.130Z,2.03
2023-02-20T10:51:18.559Z,1.70
2023-02-20T10:53:48.276Z,1.90
2023-02-20T10:56:19.399Z,1.37
2023-02-20T10:58:50.247Z,2.57
2023-02-20T11:01:21.369Z,0.87
2023-02-20T11:03:53.701Z,1.40
2023-02-20T11:06:22.226Z,0.70
2023-02-20T11:08:49.931Z,2.10
2023-02-20T11:11:21.772Z,4.00
2023-02-20T11:13:49.133Z,1.23
2023-02-20T11:16:22.362Z,1.40
2023-02-20T11:18:54.332Z,3.33
2023-02-20T11:21:34.457Z,1.13
2023-02-20T11:24:17.738Z,3.47
2023-02-20T11:26:45.208Z,3.60
2023-02-20T11:29:16.587Z,2.20
2023-02-20T11:31:44.570Z,0.80
2023-02-20T11:34:17.737Z,1.60
2023-02-20T11:36:47.022Z,0.80
2023-02-20T11:39:20.219Z,2.13
2023-02-20T11:41:49.082Z,1.43
2023-02-20T11:44:21.404Z,1.13
2023-02-20T11:46:49.392Z,2.83
2023-02-20T11:49:28.196Z,2.10
2023-02-20T11:52:08.208Z,1.23
2023-02-20T11:54:35.631Z,2.47
2023-02-20T11:57:06.082Z,2.27
2023-02-20T11:59:35.465Z,1.67
2023-02-20T12:02:13.317Z,1.47
2023-02-20T12:04:43.298Z,1.07
2023-02-20T12:07:19.305Z,1.67
2023-02-20T12:09:49.457Z,2.37
2023-02-20T12:12:16.954Z,0.97
2023-02-20T12:14:44.352Z,0.30
2023-02-20T12:17:16.667Z,0.73
2023-02-20T12:19:50.779Z,2.57
2023-02-20T12:22:20.605Z,0.40
2023-02-20T12:24:52.660Z,0.53
2023-02-20T12:27:26.486Z,1.00
2023-02-20T12:30:00.709Z,1.33
2023-02-20T12:32:33.732Z,1.07
2023-02-20T12:35:20.837Z,0.80
2023-02-20T12:37:51.410Z,3.73
2023-02-20T12:40:29.573Z,0.57
2023-02-20T12:43:02.850Z,1.13
2023-02-20T12:45:31.739Z,1.83
2023-02-20T12:48:05.844Z,0.63
2023-02-20T12:50:41.848Z,2.07
2023-02-20T12:53:17.727Z,0.93
2023-02-20T12:55:50.022Z,0.37
2023-02-20T12:58:21.919Z,1.47
2023-02-20T13:00:52.696Z,2.77
2023-02-20T13:03:22.337Z,1.37
2023-02-20T13:05:51.997Z,2.10
2023-02-20T13:08:23.406Z,0.80
2023-02-20T13:10:53.443Z,0.63
2023-02-20T13:13:20.961Z,0.53
2023-02-20T13:15:51.812Z,2.90
2023-02-20T13:18:23.548Z,2.57
2023-02-20T13:20:54.127Z,3.43
2023-02-20T13:23:29.318Z,4.30
2023-02-20T13:25:57.046Z,1.80
2023-02-20T13:28:26.757Z,1.17
2023-02-20T13:31:11.156Z,1.50
2023-02-20T13:33:39.458Z,1.20
2023-02-20T13:36:17.550Z,1.63
2023-02-20T13:39:01.562Z,1.27
2023-02-20T13:41:48.943Z,1.17
2023-02-20T13:44:31.300Z,1.63
2023-02-20T13:46:59.357Z,2.13
2023-02-20T13:49:41.690Z,4.30
2023-02-20T13:52:23.941Z,1.33
2023-02-20T13:54:52.914Z,1.30
2023-02-20T13:57:20.262Z,2.17
2023-02-20T13:59:49.010Z,2.70
2023-02-20T14:02:20.124Z,3.93
2023-02-20T14:04:54.549Z,1.73
2023-02-20T14:07:29.294Z,2.93
2023-02-20T14:10:05.718Z,2.70
2023-02-20T14:12:34.056Z,0.67
2023-02-20T14:15:04.189Z,0.93
2023-02-20T14:17:32.881Z,1.00
2023-02-20T14:20:16.619Z,2.30
2023-02-20T14:22:44.006Z,0.87
2023-02-20T14:25:32.565Z,3.63
2023-02-20T14:28:12.852Z,2.40
2023-02-20T14:30:40.905Z,4.17
2023-02-20T14:33:20.344Z,1.13
2023-02-20T14:35:53.444Z,2.30
2023-02-20T14:38:27.203Z,1.17
2023-02-20T14:40:54.659Z,0.70
2023-02-20T14:43:25.049Z,1.07
2023-02-20T14:46:00.798Z,0.40
2023-02-20T14:48:29.338Z,1.03
2023-02-20T14:51:11.722Z,0.93
2023-02-20T14:53:39.207Z,0.77
2023-02-20T14:56:13.721Z,0.97
2023-02-20T14:58:42.637Z,1.23
2023-02-20T15:01:20.799Z,1.40
2023-02-20T15:03:59.700Z,2.97
2023-02-20T15:06:27.401Z,0.83
2023-02-20T15:08:58.314Z,3.53
2023-02-20T15:11:25.969Z,0.60
2023-02-20T15:13:54.903Z,0.70
2023-02-20T15:16:23.473Z,1.67
2023-02-20T15:18:50.921Z,0.30
2023-02-20T15:21:31.314Z,2.03
2023-02-20T15:24:12.661Z,2.07
2023-02-20T15:26:40.225Z,1.43
2023-02-20T15:29:12.509Z,1.53
2023-02-20T15:31:40.115Z,1.63
2023-02-20T15:34:13.662Z,1.57
2023-02-20T15:36:41.993Z,2.07
2023-02-20T15:39:11.912Z,2.43
2023-02-20T15:41:39.301Z,3.23
2023-02-20T15:44:06.623Z,0.70
2023-02-20T15:46:35.720Z,1.87
2023-02-20T15:49:04.865Z,2.13
2023-02-20T15:51:34.671Z,0.70
2023-02-20T15:54:02.456Z,2.80
2023-02-20T15:56:32.945Z,2.63
2023-02-20T15:59:02.614Z,2.87
2023-02-20T16:01:30.087Z,1.60
2023-02-20T16:03:58.943Z,3.30
2023-02-20T16:06:26.554Z,0.97
2023-02-20T16:08:54.476Z,1.40
2023-02-20T16:11:23.281Z,2.97
2023-02-20T16:13:54.141Z,5.83
2023-02-20T16:16:24.636Z,1.40
2023-02-20T16:18:54.724Z,2.10
2023-02-20T16:21:24.429Z,2.10
2023-02-20T16:23:52.562Z,1.23
2023-02-20T16:26:22.638Z,1.53
2023-02-20T16:28:52.885Z,3.27
2023-02-20T16:31:20.297Z,0.70
2023-02-20T16:33:49.335Z,1.97
2023-02-20T16:36:24.654Z,3.10
2023-02-20T16:38:53.807Z,2.00
2023-02-20T16:41:21.326Z,1.17
2023-02-20T16:43:49.276Z,3.00
2023-02-20T16:46:21.773Z,1.20
2023-02-20T16:48:54.040Z,0.93
2023-02-20T16:51:24.285Z,0.73
2023-02-20T16:53:51.938Z,0.23
2023-02-20T16:56:20.630Z,2.33
2023-02-20T16:58:48.134Z,2.47
2023-02-20T17:01:15.973Z,1.77
2023-02-20T17:03:44.016Z,0.83
2023-02-20T17:06:13.814Z,1.73
2023-02-20T17:08:41.180Z,7.23
2023-02-20T17:11:08.511Z,1.17
2023-02-20T17:13:37.154Z,1.77
2023-02-20T17:16:04.724Z,0.77
2023-02-20T17:18:32.092Z,1.30
2023-02-20T17:20:59.438Z,2.13
2023-02-20T17:23:27.108Z,1.47
2023-02-20T17:25:54.465Z,1.47
2023-02-20T17:28:21.793Z,1.67
2023-02-20T17:30:54.306Z,1.50
2023-02-20T17:33:22.278Z,1.83
2023-02-20T17:35:50.842Z,1.57
2023-02-20T17:38:18.197Z,0.90
2023-02-20T17:40:45.582Z,1.37
2023-02-20T17:43:13.742Z,1.63
2023-02-20T17:45:41.147Z,1.60
2023-02-20T17:48:10.164Z,3.97
2023-02-20T17:50:37.834Z,2.63
2023-02-20T17:53:05.255Z,1.23
2023-02-20T17:55:34.079Z,3.07
2023-02-20T17:58:01.807Z,2.60
2023-02-20T18:00:29.152Z,2.23
2023-02-20T18:02:56.703Z,1.43
2023-02-20T18:05:25.432Z,2.70
2023-02-20T18:07:52.763Z,3.50
2023-02-20T18:10:20.627Z,1.97
2023-02-20T18:13:02.439Z,3.37
2023-02-20T18:15:30.307Z,1.23
2023-02-20T18:17:57.649Z,0.57
2023-02-20T18:20:26.337Z,1.03
2023-02-20T18:22:53.676Z,2.43
2023-02-20T18:25:28.480Z,1.50
2023-02-20T18:28:05.409Z,0.77
2023-02-20T18:30:33.510Z,4.50
2023-02-20T18:33:00.960Z,2.93
2023-02-20T18:35:29.732Z,3.13
2023-02-20T18:37:57.385Z,1.77
2023-02-20T18:40:25.197Z,1.47
2023-02-20T18:42:52.677Z,0.93
2023-02-20T18:45:22.401Z,1.33
2023-02-20T18:47:50.800Z,1.40
2023-02-20T18:50:18.721Z,3.00
2023-02-20T18:52:48.105Z,2.97
2023-02-20T18:55:17.687Z,2.80
2023-02-20T18:57:46.747Z,2.97
2023-02-20T19:00:16.045Z,4.37
2023-02-20T19:02:43.489Z,2.47
2023-02-20T19:05:10.942Z,3.50
2023-02-20T19:07:41.495Z,4.73
2023-02-20T19:10:10.722Z,4.40
2023-02-20T19:12:38.329Z,4.10
2023-02-20T19:15:07.041Z,3.10
2023-02-20T19:17:34.625Z,3.60
2023-02-20T19:20:02.392Z,3.73
2023-02-20T19:22:30.381Z,1.90
2023-02-20T19:24:58.325Z,2.80
2023-02-20T19:27:27.391Z,2.90
2023-02-20T19:29:54.730Z,3.67
2023-02-20T19:32:22.753Z,2.77
2023-02-20T19:34:50.589Z,1.83
2023-02-20T19:37:18.200Z,1.73
2023-02-20T19:39:45.898Z,1.73
2023-02-20T19:42:13.797Z,2.27
2023-02-20T19:44:42.488Z,4.00
2023-02-20T19:47:10.107Z,3.20
2023-02-20T19:49:38.739Z,2.83
2023-02-20T19:52:06.347Z,2.70
2023-02-20T19:54:33.734Z,3.97
2023-02-20T19:57:02.761Z,2.53
2023-02-20T19:59:31.144Z,5.00
2023-02-20T20:02:00.768Z,2.20
2023-02-20T20:04:30.492Z,3.27
2023-02-20T20:06:57.929Z,6.60
2023-02-20T20:09:36.269Z,1.77
2023-02-20T20:12:04.972Z,1.63
2023-02-20T20:14:32.320Z,2.57
2023-02-20T20:17:02.725Z,4.03
2023-02-20T20:19:30.587Z,1.23
2023-02-20T20:21:58.081Z,0.60
2023-02-20T20:24:25.419Z,1.80
2023-02-20T20:26:52.741Z,1.57
2023-02-20T20:29:20.129Z,0.97
2023-02-20T20:31:47.488Z,0.77
2023-02-20T20:34:16.177Z,0.77
2023-02-20T20:36:43.601Z,1.20
2023-02-20T20:39:10.975Z,4.07
2023-02-20T20:41:44.873Z,1.70
2023-02-20T20:44:12.943Z,1.77
2023-02-20T20:46:40.297Z,1.53
2023-02-20T20:49:07.771Z,1.80
2023-02-20T20:51:36.495Z,2.33
2023-02-20T20:54:06.393Z,2.60
2023-02-20T20:56:34.558Z,1.37
2023-02-20T20:59:01.972Z,2.50
2023-02-20T21:01:29.372Z,3.17
2023-02-20T21:03:56.802Z,1.90
2023-02-20T21:06:24.284Z,1.70
2023-02-20T21:08:53.007Z,3.43
2023-02-20T21:11:20.486Z,5.07
2023-02-20T21:13:49.569Z,0.93
2023-02-20T21:16:17.396Z,2.10
2023-02-20T21:18:45.201Z,4.43
2023-02-20T21:21:13.264Z,1.53
2023-02-20T21:23:45.195Z,2.70
2023-02-20T21:26:14.566Z,6.43
2023-02-20T21:28:42.127Z,1.90
2023-02-20T21:31:09.810Z,2.53
2023-02-20T21:33:38.010Z,2.00
2023-02-20T21:36:06.564Z,2.63
2023-02-20T21:38:34.721Z,2.47
2023-02-20T21:41:02.186Z,3.70
2023-02-20T21:43:50.571Z,2.27
2023-02-20T21:46:19.054Z,3.10
2023-02-20T21:48:46.398Z,3.10
2023-02-20T21:51:14.096Z,7.67
2023-02-20T21:53:41.861Z,5.13
2023-02-20T21:56:09.201Z,3.70
2023-02-20T21:58:55.648Z,3.63
2023-02-20T22:01:22.123Z,2.00
2023-02-20T22:03:48.449Z,3.77
2023-02-20T22:06:14.801Z,3.50
2023-02-20T22:08:59.702Z,1.37
2023-02-20T22:11:44.634Z,3.83
2023-02-20T22:14:30.785Z,1.30
2023-02-20T22:17:15.738Z,1.27
2023-02-20T22:20:00.862Z,3.50
2023-02-20T22:22:45.624Z,2.30
2023-02-20T22:25:30.588Z,1.57
2023-02-20T22:28:16.068Z,2.17
2023-02-20T22:31:02.519Z,3.37
2023-02-20T22:33:47.880Z,1.53
2023-02-20T22:36:32.688Z,4.43
2023-02-20T22:39:17.601Z,1.20
2023-02-20T22:42:02.475Z,1.50
2023-02-20T22:44:47.548Z,2.27
2023-02-20T22:47:33.996Z,2.97
2023-02-20T22:50:18.909Z,3.00
2023-02-20T22:53:03.765Z,2.50
2023-02-20T22:55:48.714Z,1.60
2023-02-20T22:58:33.584Z,2.07
2023-02-20T23:01:19.245Z,1.00
2023-02-20T23:04:06.586Z,3.37
2023-02-20T23:06:51.632Z,3.00
2023-02-20T23:09:36.641Z,2.83
2023-02-20T23:12:21.941Z,2.07
2023-02-20T23:15:06.965Z,2.17
2023-02-20T23:17:51.858Z,3.63
2023-02-20T23:20:40.535Z,2.20
2023-02-20T23:23:25.754Z,2.83
2023-02-20T23:26:11.115Z,3.40
2023-02-20T23:28:56.627Z,1.87
2023-02-20T23:31:49.722Z,1.50
2023-02-20T23:34:34.963Z,2.03
2023-02-20T23:37:21.904Z,3.33
2023-02-20T23:40:06.808Z,2.67
2023-02-20T23:42:51.743Z,3.87
2023-02-20T23:45:36.765Z,6.90
2023-02-20T23:48:22.096Z,4.27
2023-02-20T23:51:07.369Z,9.63
2023-02-20T23:53:54.282Z,4.47
2023-02-20T23:56:39.717Z,2.07
2023-02-20T23:59:25.597Z,2.93
